createdAt,value
2017-08-06T00:01:40.582Z,99.99
2017-08-06T00:06:36.828Z,99.99
2017-08-06T00:11:33.532Z,99.99
2017-08-06T00:16:30.534Z,99.99
2017-08-06T00:21:27.015Z,99.99
2017-08-06T00:26:26.103Z,99.99
2017-08-06T00:31:22.510Z,99.99
2017-08-06T00:36:18.329Z,99.99
2017-08-06T00:41:15.298Z,99.99
2017-08-06T00:46:11.813Z,99.99
2017-08-06T00:51:09.589Z,99.99
2017-08-06T01:01:11.694Z,99.99
2017-08-06T01:06:13.451Z,99.99
2017-08-06T01:11:09.949Z,99.99
2017-08-06T01:21:09.464Z,99.99
2017-08-06T01:31:11.557Z,99.99
2017-08-06T01:36:08.774Z,99.99
2017-08-06T01:41:06.627Z,99.99
2017-08-06T01:56:07.575Z,99.99
2017-08-06T02:01:05.722Z,99.99
2017-08-06T02:06:03.595Z,99.99
2017-08-06T02:11:05.200Z,99.99
2017-08-06T02:31:06.958Z,99.99
2017-08-06T02:36:03.724Z,99.99
2017-08-06T02:41:01.607Z,99.99
2017-08-06T02:46:02.460Z,99.99
2017-08-06T03:01:04.538Z,99.99
2017-08-06T03:06:02.429Z,99.99
2017-08-06T03:26:18.406Z,99.99
2017-08-06T03:31:16.028Z,99.99
2017-08-06T03:41:14.020Z,99.99
2017-08-06T03:46:12.961Z,99.99
2017-08-06T03:51:11.747Z,99.99
2017-08-06T03:56:07.377Z,99.99
2017-08-06T04:01:03.513Z,99.99
2017-08-06T04:06:02.721Z,99.99
2017-08-06T04:11:03.369Z,99.99
2017-08-06T04:15:59.567Z,99.99
2017-08-06T04:20:56.719Z,99.99
2017-08-06T04:25:53.234Z,99.99
2017-08-06T04:30:49.634Z,99.99
2017-08-06T04:35:47.772Z,99.99
2017-08-06T04:40:45.064Z,99.99
2017-08-06T04:45:43.017Z,99.99
2017-08-06T04:50:40.642Z,99.99
2017-08-06T04:55:36.944Z,99.99
2017-08-06T05:00:34.240Z,99.99
2017-08-06T05:05:31.017Z,99.99
2017-08-06T05:10:28.136Z,99.99
2017-08-06T05:20:28.101Z,99.99
2017-08-06T05:25:24.948Z,99.99
2017-08-06T05:30:22.096Z,99.99
2017-08-06T05:35:17.860Z,99.99
2017-08-06T05:40:16.152Z,99.99
2017-08-06T05:45:11.886Z,99.99
2017-08-06T05:50:08.572Z,99.99
2017-08-06T05:55:04.657Z,99.99
2017-08-06T06:00:01.809Z,99.99
2017-08-06T06:04:58.580Z,99.99
2017-08-06T06:09:54.747Z,99.99
2017-08-06T06:14:50.927Z,99.99
2017-08-06T06:19:48.882Z,99.99
2017-08-06T06:24:44.948Z,99.99
2017-08-06T06:39:48.119Z,99.99
2017-08-06T06:44:44.673Z,99.99
2017-08-06T06:49:40.439Z,99.99
2017-08-06T06:54:37.502Z,99.99
2017-08-06T06:59:34.191Z,99.99
2017-08-06T07:04:32.178Z,99.99
2017-08-06T07:09:30.053Z,99.99
2017-08-06T07:14:26.436Z,99.99
2017-08-06T07:19:22.873Z,99.99
2017-08-06T07:24:19.709Z,99.99
2017-08-06T07:29:15.641Z,99.99
2017-08-06T07:34:12.460Z,99.99
2017-08-06T07:39:08.524Z,99.99
2017-08-06T07:44:06.485Z,99.99
2017-08-06T07:49:04.361Z,99.99
2017-08-06T07:54:00.804Z,99.99
2017-08-06T07:58:58.027Z,99.99
2017-08-06T08:03:56.629Z,99.99
2017-08-06T08:08:55.135Z,99.99
2017-08-06T08:13:52.929Z,99.99
2017-08-06T08:18:50.238Z,98.24
2017-08-06T08:23:48.067Z,96.85
2017-08-06T08:28:44.440Z,95.60
2017-08-06T08:33:42.374Z,93.96
2017-08-06T08:38:39.237Z,92.36
2017-08-06T08:43:36.184Z,91.11
2017-08-06T08:48:31.744Z,90.39
2017-08-06T08:53:27.229Z,93.72
2017-08-06T08:58:22.181Z,94.97
2017-08-06T09:03:16.961Z,94.82
2017-08-06T09:08:12.946Z,93.91
2017-08-06T09:13:08.354Z,91.65
2017-08-06T09:18:05.276Z,92.61
2017-08-06T09:23:01.444Z,87.22
2017-08-06T09:27:59.809Z,84.90
2017-08-06T09:32:57.457Z,82.78
2017-08-06T09:37:55.079Z,75.16
2017-08-06T09:42:49.516Z,80.77
2017-08-06T09:47:47.333Z,78.73
2017-08-06T09:52:44.930Z,74.10
2017-08-06T09:57:40.644Z,68.45
2017-08-06T10:02:38.077Z,68.43
2017-08-06T10:07:36.426Z,66.24
2017-08-06T10:12:32.790Z,61.99
2017-08-06T10:17:30.377Z,65.27
2017-08-06T10:22:27.537Z,61.80
2017-08-06T10:27:24.520Z,62.63
2017-08-06T10:32:17.702Z,63.15
2017-08-06T10:37:12.348Z,66.78
2017-08-06T10:42:10.990Z,64.47
2017-08-06T10:47:07.217Z,66.20
2017-08-06T10:52:03.233Z,65.91
2017-08-06T10:57:01.254Z,63.98
2017-08-06T11:02:00.756Z,61.96
2017-08-06T11:06:57.947Z,60.41
2017-08-06T11:11:56.057Z,59.38
2017-08-06T11:16:52.450Z,58.35
2017-08-06T11:21:49.859Z,56.41
2017-08-06T11:26:45.259Z,57.09
2017-08-06T11:31:44.343Z,54.41
2017-08-06T11:36:41.550Z,54.03
2017-08-06T11:41:38.506Z,52.80
2017-08-06T11:46:33.438Z,53.42
2017-08-06T11:51:29.298Z,56.77
2017-08-06T11:56:27.958Z,56.03
2017-08-06T12:01:21.247Z,53.71
2017-08-06T12:06:19.149Z,50.48
2017-08-06T12:11:16.705Z,52.61
2017-08-06T12:16:12.049Z,52.41
2017-08-06T12:21:03.769Z,55.33
2017-08-06T12:26:00.727Z,56.00
2017-08-06T12:30:57.544Z,53.83
2017-08-06T12:35:54.468Z,54.13
2017-08-06T12:40:50.544Z,52.87
2017-08-06T12:45:42.121Z,55.23
2017-08-06T12:50:40.471Z,55.49
2017-08-06T12:55:35.040Z,55.33
2017-08-06T13:00:35.770Z,55.45
2017-08-06T13:05:29.950Z,56.94
2017-08-06T13:10:27.867Z,57.14
2017-08-06T13:15:23.121Z,55.52
2017-08-06T13:20:19.628Z,55.71
2017-08-06T13:25:16.624Z,52.48
2017-08-06T13:30:12.992Z,50.81
2017-08-06T13:35:08.770Z,52.33
2017-08-06T13:40:04.972Z,53.71
2017-08-06T13:45:02.109Z,54.46
2017-08-06T13:49:58.433Z,54.94
2017-08-06T13:54:53.506Z,55.30
2017-08-06T13:59:49.093Z,55.33
2017-08-06T14:04:46.335Z,54.17
2017-08-06T14:09:43.323Z,53.39
2017-08-06T14:14:38.694Z,54.98
2017-08-06T14:19:35.216Z,55.78
2017-08-06T14:24:31.722Z,56.62
2017-08-06T14:29:28.179Z,56.62
2017-08-06T14:34:24.214Z,56.36
2017-08-06T14:39:20.392Z,55.30
2017-08-06T14:44:18.438Z,56.26
2017-08-06T14:49:15.120Z,55.40
2017-08-06T14:54:10.801Z,55.49
2017-08-06T14:59:07.823Z,53.92
2017-08-06T15:04:05.966Z,53.63
2017-08-06T15:09:02.057Z,56.33
2017-08-06T15:13:57.629Z,55.36
2017-08-06T15:18:54.695Z,56.04
2017-08-06T15:23:51.553Z,56.33
2017-08-06T15:28:48.308Z,59.90
2017-08-06T15:33:45.069Z,55.56
2017-08-06T15:38:40.678Z,54.50
2017-08-06T15:43:36.907Z,54.53
2017-08-06T15:48:33.033Z,53.25
2017-08-06T15:53:28.920Z,55.08
2017-08-06T15:58:26.707Z,56.24
2017-08-06T16:03:21.917Z,56.40
2017-08-06T16:08:17.610Z,60.64
2017-08-06T16:13:13.410Z,58.42
2017-08-06T16:18:10.307Z,56.85
2017-08-06T16:23:05.969Z,58.69
2017-08-06T16:28:01.994Z,58.11
2017-08-06T16:32:59.438Z,57.24
2017-08-06T16:37:55.456Z,57.27
2017-08-06T16:42:52.645Z,56.69
2017-08-06T16:47:49.281Z,56.88
2017-08-06T16:52:45.228Z,58.62
2017-08-06T16:57:42.358Z,58.45
2017-08-06T17:02:38.227Z,58.62
2017-08-06T17:07:35.383Z,60.48
2017-08-06T17:12:32.055Z,59.87
2017-08-06T17:17:28.555Z,60.35
2017-08-06T17:22:24.123Z,60.35
2017-08-06T17:27:20.858Z,60.26
2017-08-06T17:32:17.619Z,62.28
2017-08-06T17:37:14.158Z,62.25
2017-08-06T17:42:10.727Z,59.84
2017-08-06T17:47:06.597Z,60.61
2017-08-06T17:52:02.531Z,60.32
2017-08-06T17:56:59.474Z,61.68
2017-08-06T18:01:54.982Z,60.58
2017-08-06T18:06:50.748Z,63.38
2017-08-06T18:11:47.527Z,62.99
2017-08-06T18:16:43.172Z,66.07
2017-08-06T18:21:38.954Z,63.47
2017-08-06T18:26:35.876Z,65.94
2017-08-06T18:31:31.793Z,69.99
2017-08-06T18:36:27.913Z,66.14
2017-08-06T18:41:24.518Z,74.22
2017-08-06T18:46:20.289Z,74.03
2017-08-06T18:51:16.023Z,70.82
2017-08-06T18:56:11.934Z,74.96
2017-08-06T19:01:08.212Z,79.86
2017-08-06T19:06:04.521Z,83.29
2017-08-06T19:11:01.506Z,78.09
2017-08-06T19:15:59.486Z,79.60
2017-08-06T19:20:56.236Z,83.44
2017-08-06T19:25:52.509Z,84.78
2017-08-06T19:30:48.397Z,84.40
2017-08-06T19:35:45.172Z,87.53
2017-08-06T19:40:41.607Z,86.85
2017-08-06T19:45:38.340Z,90.89
2017-08-06T19:50:33.963Z,89.36
2017-08-06T19:55:31.182Z,91.28
2017-08-06T20:00:26.770Z,90.56
2017-08-06T20:05:22.393Z,92.19
2017-08-06T20:10:20.952Z,92.67
2017-08-06T20:15:16.986Z,91.71
2017-08-06T20:20:13.557Z,91.81
2017-08-06T20:25:09.495Z,93.44
2017-08-06T20:30:05.374Z,94.07
2017-08-06T20:35:03.010Z,93.87
2017-08-06T20:39:58.127Z,95.03
2017-08-06T20:44:54.687Z,95.41
2017-08-06T20:49:50.366Z,96.27
2017-08-06T20:54:47.141Z,97.71
2017-08-06T20:59:42.563Z,98.96
2017-08-06T21:04:39.500Z,99.99
2017-08-06T21:09:36.465Z,99.99
2017-08-06T21:14:32.033Z,98.58
2017-08-06T21:19:28.817Z,98.72
2017-08-06T21:24:24.246Z,99.99
2017-08-06T21:29:21.547Z,99.99
2017-08-06T21:34:18.279Z,99.99
2017-08-06T21:39:14.732Z,99.99
2017-08-06T21:44:11.431Z,99.99
2017-08-06T21:49:06.727Z,99.99
2017-08-06T21:54:02.411Z,99.99
2017-08-06T21:59:00.354Z,99.99
2017-08-06T22:03:55.822Z,99.99
2017-08-06T22:08:51.585Z,99.87
2017-08-06T22:13:47.919Z,99.99
2017-08-06T22:18:44.995Z,98.91
2017-08-06T22:23:40.685Z,99.87
2017-08-06T22:28:36.305Z,99.99
2017-08-06T22:33:32.494Z,99.99
2017-08-06T22:38:28.281Z,99.99
2017-08-06T22:43:24.327Z,99.99
2017-08-06T22:48:22.393Z,99.99
2017-08-06T22:53:17.880Z,99.99
2017-08-06T22:58:13.738Z,99.99
2017-08-06T23:03:09.453Z,99.99
2017-08-06T23:08:05.468Z,99.99
2017-08-06T23:13:01.079Z,99.99
2017-08-06T23:17:56.778Z,99.99
2017-08-06T23:22:52.595Z,99.99
2017-08-06T23:27:48.642Z,99.99
2017-08-06T23:32:45.066Z,99.99
2017-08-06T23:37:41.263Z,99.99
2017-08-06T23:42:36.864Z,99.99
2017-08-06T23:47:32.821Z,99.99
2017-08-06T23:52:29.829Z,99.99
2017-08-06T23:57:27.300Z,99.99
